createdAt,value
2019-01-02T00:00:44.357Z,894.30
2019-01-02T00:01:44.337Z,894.29
2019-01-02T00:02:44.327Z,894.32
2019-01-02T00:03:44.311Z,894.31
2019-01-02T00:04:44.306Z,894.32
2019-01-02T00:05:44.278Z,894.31
2019-01-02T00:06:44.266Z,894.29
2019-01-02T00:07:44.324Z,894.27
2019-01-02T00:08:44.219Z,894.29
2019-01-02T00:09:44.210Z,894.28
2019-01-02T00:10:44.189Z,894.30
2019-01-02T00:11:44.173Z,894.28
2019-01-02T00:12:44.155Z,894.29
2019-01-02T00:13:44.134Z,894.28
2019-01-02T00:14:44.119Z,894.28
2019-01-02T00:15:44.100Z,894.22
2019-01-02T00:16:44.084Z,894.20
2019-01-02T00:17:44.074Z,894.15
2019-01-02T00:18:44.064Z,894.10
2019-01-02T00:19:44.035Z,894.07
2019-01-02T00:20:44.017Z,894.14
2019-01-02T00:21:44.015Z,894.11
2019-01-02T00:22:43.980Z,894.17
2019-01-02T00:23:43.967Z,894.19
2019-01-02T00:24:43.943Z,894.15
2019-01-02T00:25:43.931Z,894.12
2019-01-02T00:26:43.943Z,894.11
2019-01-02T00:27:43.902Z,894.00
2019-01-02T00:28:43.880Z,894.10
2019-01-02T00:29:43.864Z,894.11
2019-01-02T00:30:43.848Z,894.11
2019-01-02T00:31:43.836Z,894.08
2019-01-02T00:32:43.810Z,894.05
2019-01-02T00:33:43.793Z,894.08
2019-01-02T00:34:43.774Z,894.05
2019-01-02T00:35:43.763Z,894.00
2019-01-02T00:36:43.749Z,893.98
2019-01-02T00:37:43.721Z,893.93
2019-01-02T00:38:43.720Z,893.98
2019-01-02T00:39:43.704Z,893.92
2019-01-02T00:40:43.672Z,893.90
2019-01-02T00:41:43.659Z,893.93
2019-01-02T00:42:43.641Z,893.91
2019-01-02T00:43:43.638Z,893.89
2019-01-02T00:44:43.608Z,893.84
2019-01-02T00:45:43.596Z,893.83
2019-01-02T00:46:43.575Z,893.84
2019-01-02T00:47:43.556Z,893.78
2019-01-02T00:48:43.542Z,893.80
2019-01-02T00:49:43.528Z,893.78
2019-01-02T00:50:43.511Z,893.77
2019-01-02T00:51:43.496Z,893.80
2019-01-02T00:52:43.467Z,893.74
2019-01-02T00:53:43.453Z,893.76
2019-01-02T00:54:43.445Z,893.74
2019-01-02T00:55:43.425Z,893.76
2019-01-02T00:56:43.423Z,893.74
2019-01-02T00:57:43.387Z,893.76
2019-01-02T00:58:43.372Z,893.78
2019-01-02T00:59:43.352Z,893.77
2019-01-02T01:00:43.332Z,893.75
2019-01-02T01:01:43.321Z,893.71
2019-01-02T01:02:43.312Z,893.69
2019-01-02T01:03:43.300Z,893.69
2019-01-02T01:04:43.290Z,893.68
2019-01-02T01:05:43.255Z,893.70
2019-01-02T01:06:43.235Z,893.71
2019-01-02T01:07:43.217Z,893.71
2019-01-02T01:08:43.199Z,893.73
2019-01-02T01:09:43.181Z,893.72
2019-01-02T01:10:43.164Z,893.71
2019-01-02T01:11:43.151Z,893.68
2019-01-02T01:12:43.131Z,893.67
2019-01-02T01:13:43.116Z,893.67
2019-01-02T01:14:43.100Z,893.69
2019-01-02T01:15:43.082Z,893.67
2019-01-02T01:16:43.061Z,893.70
2019-01-02T01:17:43.052Z,893.69
2019-01-02T01:18:43.029Z,893.73
2019-01-02T01:19:43.013Z,893.69
2019-01-02T01:20:42.999Z,893.66
2019-01-02T01:21:42.975Z,893.67
2019-01-02T01:22:42.962Z,893.69
2019-01-02T01:23:42.935Z,893.65
2019-01-02T01:24:42.929Z,893.68
2019-01-02T01:25:42.905Z,893.66
2019-01-02T01:26:42.891Z,893.66
2019-01-02T01:27:42.876Z,893.64
2019-01-02T01:28:42.861Z,893.64
2019-01-02T01:29:42.846Z,893.64
2019-01-02T01:30:42.826Z,893.61
2019-01-02T01:31:42.804Z,893.68
2019-01-02T01:32:42.790Z,893.68
2019-01-02T01:33:42.771Z,893.68
2019-01-02T01:34:42.753Z,893.64
2019-01-02T01:35:42.736Z,893.61
2019-01-02T01:36:42.726Z,893.62
2019-01-02T01:37:42.696Z,893.60
2019-01-02T01:38:42.685Z,893.56
2019-01-02T01:39:42.684Z,893.56
2019-01-02T01:40:42.657Z,893.55
2019-01-02T01:41:42.678Z,893.52
2019-01-02T01:42:42.616Z,893.60
2019-01-02T01:43:42.621Z,893.56
2019-01-02T01:44:42.593Z,893.49
2019-01-02T01:45:42.568Z,893.47
2019-01-02T01:46:42.546Z,893.45
2019-01-02T01:47:42.533Z,893.43
2019-01-02T01:48:42.515Z,893.43
2019-01-02T01:49:42.497Z,893.35
2019-01-02T01:50:42.483Z,893.32
2019-01-02T01:51:42.467Z,893.32
2019-01-02T01:52:42.451Z,893.32
2019-01-02T01:53:42.433Z,893.33
2019-01-02T01:54:42.418Z,893.36
2019-01-02T01:55:42.394Z,893.33
2019-01-02T01:56:42.379Z,893.37
2019-01-02T01:57:42.362Z,893.42
2019-01-02T01:58:42.344Z,893.45
2019-01-02T01:59:42.328Z,893.43
2019-01-02T02:00:42.313Z,893.37
2019-01-02T02:01:42.294Z,893.34
2019-01-02T02:02:42.273Z,893.31
2019-01-02T02:03:42.255Z,893.29
2019-01-02T02:04:42.245Z,893.30
2019-01-02T02:05:42.224Z,893.29
2019-01-02T02:06:42.205Z,893.31
2019-01-02T02:07:42.195Z,893.31
2019-01-02T02:08:42.171Z,893.36
2019-01-02T02:09:42.147Z,893.34
2019-01-02T02:10:42.138Z,893.34
2019-01-02T02:11:42.118Z,893.33
2019-01-02T02:12:42.102Z,893.28
2019-01-02T02:13:42.090Z,893.24
2019-01-02T02:14:42.080Z,893.21
2019-01-02T02:15:42.058Z,893.23
2019-01-02T02:16:42.028Z,893.23
2019-01-02T02:17:42.013Z,893.23
2019-01-02T02:18:42.014Z,893.19
2019-01-02T02:19:41.979Z,893.12
2019-01-02T02:20:41.963Z,893.10
2019-01-02T02:21:41.945Z,893.03
2019-01-02T02:22:41.931Z,893.01
2019-01-02T02:23:41.913Z,893.00
2019-01-02T02:24:41.897Z,892.94
2019-01-02T02:25:41.879Z,892.91
2019-01-02T02:26:41.876Z,892.90
2019-01-02T02:27:41.852Z,892.89
2019-01-02T02:28:41.828Z,892.85
2019-01-02T02:29:41.806Z,892.81
2019-01-02T02:30:41.791Z,892.71
2019-01-02T02:31:41.791Z,892.74
2019-01-02T02:32:41.771Z,892.74
2019-01-02T02:33:41.748Z,892.79
2019-01-02T02:34:41.720Z,892.74
2019-01-02T02:35:41.712Z,892.75
2019-01-02T02:36:41.690Z,892.74
2019-01-02T02:37:41.670Z,892.79
2019-01-02T02:38:41.655Z,892.80
2019-01-02T02:39:41.633Z,892.77
2019-01-02T02:40:41.613Z,892.78
2019-01-02T02:41:41.602Z,892.77
2019-01-02T02:42:41.579Z,892.72
2019-01-02T02:43:41.568Z,892.69
2019-01-02T02:44:41.552Z,892.65
2019-01-02T02:45:41.529Z,892.67
2019-01-02T02:46:41.508Z,892.65
2019-01-02T02:47:41.503Z,892.65
2019-01-02T02:48:41.476Z,892.73
2019-01-02T02:49:41.456Z,892.76
2019-01-02T02:50:41.438Z,892.78
2019-01-02T02:51:41.424Z,892.82
2019-01-02T02:52:41.419Z,892.79
2019-01-02T02:53:41.381Z,892.70
2019-01-02T02:54:41.367Z,892.71
2019-01-02T02:55:41.349Z,892.64
2019-01-02T02:56:41.337Z,892.64
2019-01-02T02:57:41.307Z,892.58
2019-01-02T02:58:41.299Z,892.60
2019-01-02T02:59:41.282Z,892.62
2019-01-02T03:00:41.263Z,892.55
2019-01-02T03:01:41.244Z,892.55
2019-01-02T03:02:41.224Z,892.51
2019-01-02T03:03:41.213Z,892.51
2019-01-02T03:04:41.184Z,892.42
2019-01-02T03:05:41.175Z,892.39
2019-01-02T03:06:41.157Z,892.33
2019-01-02T03:07:41.137Z,892.34
2019-01-02T03:08:41.134Z,892.44
2019-01-02T03:09:41.103Z,892.40
2019-01-02T03:10:41.087Z,892.41
2019-01-02T03:11:41.077Z,892.40
2019-01-02T03:12:41.053Z,892.35
2019-01-02T03:13:41.035Z,892.33
2019-01-02T03:14:41.012Z,892.33
2019-01-02T03:15:40.996Z,892.35
2019-01-02T03:16:40.974Z,892.30
2019-01-02T03:17:40.956Z,892.31
2019-01-02T03:18:41.001Z,892.25
2019-01-02T03:19:40.924Z,892.25
2019-01-02T03:20:40.904Z,892.24
2019-01-02T03:21:40.890Z,892.18
2019-01-02T03:22:40.867Z,892.16
2019-01-02T03:23:40.853Z,892.10
2019-01-02T03:24:40.837Z,892.11
2019-01-02T03:25:40.819Z,892.11
2019-01-02T03:26:40.814Z,892.09
2019-01-02T03:27:40.792Z,892.05
2019-01-02T03:28:40.758Z,892.06
2019-01-02T03:29:40.754Z,892.11
2019-01-02T03:30:40.731Z,892.07
2019-01-02T03:31:40.710Z,892.03
2019-01-02T03:32:40.685Z,892.06
2019-01-02T03:33:40.675Z,892.10
2019-01-02T03:34:40.661Z,892.02
2019-01-02T03:35:40.640Z,891.98
2019-01-02T03:36:40.617Z,891.95
2019-01-02T03:37:40.599Z,891.96
2019-01-02T03:38:40.589Z,891.96
2019-01-02T03:39:40.570Z,891.94
2019-01-02T03:40:40.555Z,891.91
2019-01-02T03:41:40.533Z,891.88
2019-01-02T03:42:40.508Z,891.84
2019-01-02T03:43:40.492Z,891.75
2019-01-02T03:44:40.473Z,891.67
2019-01-02T03:45:40.475Z,891.65
2019-01-02T03:46:40.438Z,891.63
2019-01-02T03:47:40.421Z,891.61
2019-01-02T03:48:40.401Z,891.65
2019-01-02T03:49:40.406Z,891.59
2019-01-02T03:50:40.366Z,891.57
2019-01-02T03:51:40.350Z,891.51
2019-01-02T03:52:40.332Z,891.56
2019-01-02T03:53:40.316Z,891.58
2019-01-02T03:54:40.293Z,891.64
2019-01-02T03:55:40.325Z,891.60
2019-01-02T03:56:40.259Z,891.61
2019-01-02T03:57:40.259Z,891.59
2019-01-02T03:58:40.232Z,891.58
2019-01-02T03:59:40.218Z,891.58
2019-01-02T04:00:40.186Z,891.55
2019-01-02T04:01:40.169Z,891.49
2019-01-02T04:02:40.155Z,891.56
2019-01-02T04:03:40.135Z,891.50
2019-01-02T04:04:40.111Z,891.49
2019-01-02T04:05:40.099Z,891.40
2019-01-02T04:06:40.079Z,891.41
2019-01-02T04:07:40.057Z,891.36
2019-01-02T04:08:40.041Z,891.30
2019-01-02T04:09:40.023Z,891.38
2019-01-02T04:10:40.006Z,891.34
2019-01-02T04:11:39.982Z,891.31
2019-01-02T04:12:39.968Z,891.33
2019-01-02T04:13:39.951Z,891.35
2019-01-02T04:14:39.934Z,891.31
2019-01-02T04:15:39.906Z,891.23
2019-01-02T04:16:39.896Z,891.28
2019-01-02T04:17:39.880Z,891.29
2019-01-02T04:18:39.857Z,891.33
2019-01-02T04:19:39.837Z,891.33
2019-01-02T04:20:39.817Z,891.33
2019-01-02T04:21:39.803Z,891.36
2019-01-02T04:22:39.786Z,891.37
2019-01-02T04:23:39.763Z,891.39
2019-01-02T04:24:39.744Z,891.33
2019-01-02T04:25:39.729Z,891.34
2019-01-02T04:26:39.720Z,891.27
2019-01-02T04:27:39.686Z,891.29
2019-01-02T04:28:39.676Z,891.36
2019-01-02T04:29:39.658Z,891.34
2019-01-02T04:30:39.655Z,891.35
2019-01-02T04:31:39.615Z,891.39
2019-01-02T04:32:39.607Z,891.37
2019-01-02T04:33:39.581Z,891.43
2019-01-02T04:34:39.570Z,891.52
2019-01-02T04:35:39.542Z,891.50
2019-01-02T04:36:39.532Z,891.48
2019-01-02T04:37:39.508Z,891.33
2019-01-02T04:38:39.490Z,891.31
2019-01-02T04:39:39.468Z,891.36
2019-01-02T04:40:39.452Z,891.43
2019-01-02T04:41:39.430Z,891.34
2019-01-02T04:42:39.420Z,891.38
2019-01-02T04:43:39.395Z,891.41
2019-01-02T04:44:39.376Z,891.41
2019-01-02T04:45:39.355Z,891.37
2019-01-02T04:46:39.341Z,891.37
2019-01-02T04:47:39.325Z,891.47
2019-01-02T04:48:39.305Z,891.43
2019-01-02T04:49:39.283Z,891.41
2019-01-02T04:50:39.264Z,891.42
2019-01-02T04:51:39.264Z,891.41
2019-01-02T04:52:39.241Z,891.44
2019-01-02T04:53:39.209Z,891.50
2019-01-02T04:54:39.202Z,891.52
2019-01-02T04:55:39.188Z,891.55
2019-01-02T04:56:39.153Z,891.51
2019-01-02T04:57:39.140Z,891.48
2019-01-02T04:58:39.113Z,891.51
2019-01-02T04:59:39.103Z,891.51
2019-01-02T05:00:39.077Z,891.54
2019-01-02T05:01:39.064Z,891.51
2019-01-02T05:02:39.040Z,891.60
2019-01-02T05:03:39.022Z,891.74
2019-01-02T05:04:39.008Z,891.65
2019-01-02T05:05:38.984Z,891.61
2019-01-02T05:06:38.968Z,891.69
2019-01-02T05:07:38.963Z,891.70
2019-01-02T05:08:38.924Z,891.66
2019-01-02T05:09:38.902Z,891.65
2019-01-02T05:10:38.887Z,891.64
2019-01-02T05:11:38.870Z,891.66
2019-01-02T05:12:38.853Z,891.69
2019-01-02T05:13:38.835Z,891.69
2019-01-02T05:14:38.815Z,891.68
2019-01-02T05:15:38.808Z,891.61
2019-01-02T05:16:38.778Z,891.74
2019-01-02T05:17:38.758Z,891.81
2019-01-02T05:18:38.736Z,891.86
2019-01-02T05:19:38.722Z,891.86
2019-01-02T05:20:38.707Z,891.78
2019-01-02T05:21:38.684Z,891.88
2019-01-02T05:22:38.659Z,891.94
2019-01-02T05:23:38.639Z,891.95
2019-01-02T05:24:38.623Z,891.86
2019-01-02T05:25:38.607Z,891.75
2019-01-02T05:26:38.586Z,891.72
2019-01-02T05:27:38.569Z,891.68
2019-01-02T05:28:38.547Z,891.66
2019-01-02T05:29:38.529Z,891.65
2019-01-02T05:30:38.510Z,891.68
2019-01-02T05:31:38.500Z,891.59
2019-01-02T05:32:38.464Z,891.68
2019-01-02T05:33:38.459Z,891.66
2019-01-02T05:34:38.439Z,891.72
2019-01-02T05:35:38.413Z,891.75
2019-01-02T05:36:38.392Z,891.74
2019-01-02T05:37:38.424Z,891.78
2019-01-02T05:38:38.363Z,891.84
2019-01-02T05:39:38.343Z,891.91
2019-01-02T05:40:38.321Z,891.93
2019-01-02T05:41:38.297Z,891.91
2019-01-02T05:42:38.280Z,891.96
2019-01-02T05:43:38.266Z,892.01
2019-01-02T05:44:38.242Z,892.01
2019-01-02T05:45:38.239Z,892.08
2019-01-02T05:46:38.206Z,892.06
2019-01-02T05:47:38.190Z,892.02
2019-01-02T05:48:38.168Z,891.96
2019-01-02T05:49:38.149Z,892.00
2019-01-02T05:50:38.133Z,892.01
2019-01-02T05:51:38.113Z,891.90
2019-01-02T05:52:38.094Z,891.88
2019-01-02T05:53:38.073Z,891.88
2019-01-02T05:54:38.055Z,891.96
2019-01-02T05:55:38.034Z,891.92
2019-01-02T05:56:38.018Z,891.93
2019-01-02T05:57:38.000Z,891.90
2019-01-02T05:58:37.980Z,891.88
2019-01-02T05:59:37.960Z,891.93
2019-01-02T06:00:39.884Z,891.90
2019-01-02T06:01:37.922Z,891.97
2019-01-02T06:02:37.901Z,891.90
2019-01-02T06:03:37.885Z,891.82
2019-01-02T06:04:37.863Z,891.82
2019-01-02T06:05:37.848Z,891.86
2019-01-02T06:06:37.830Z,891.99
2019-01-02T06:07:37.810Z,891.94
2019-01-02T06:08:37.786Z,891.94
2019-01-02T06:09:37.768Z,891.91
2019-01-02T06:10:37.749Z,892.10
2019-01-02T06:11:37.731Z,892.15
2019-01-02T06:12:37.711Z,892.10
2019-01-02T06:13:37.708Z,891.97
2019-01-02T06:14:37.675Z,891.85
2019-01-02T06:15:37.660Z,891.88
2019-01-02T06:16:37.633Z,892.00
2019-01-02T06:17:37.615Z,892.12
2019-01-02T06:18:37.602Z,892.17
2019-01-02T06:19:37.584Z,892.10
2019-01-02T06:20:37.558Z,892.16
2019-01-02T06:21:37.533Z,892.26
2019-01-02T06:22:37.522Z,892.35
2019-01-02T06:23:37.506Z,892.39
2019-01-02T06:24:37.489Z,892.49
2019-01-02T06:25:37.467Z,892.49
2019-01-02T06:26:37.443Z,892.65
2019-01-02T06:27:37.420Z,892.46
2019-01-02T06:28:37.400Z,892.55
2019-01-02T06:29:37.388Z,892.70
2019-01-02T06:30:37.372Z,892.78
2019-01-02T06:31:37.355Z,892.78
2019-01-02T06:32:37.326Z,892.82
2019-01-02T06:33:37.312Z,892.99
2019-01-02T06:34:37.295Z,892.70
2019-01-02T06:35:37.279Z,892.65
2019-01-02T06:36:37.250Z,892.66
2019-01-02T06:37:37.234Z,892.61
2019-01-02T06:38:37.218Z,892.73
2019-01-02T06:39:37.200Z,892.92
2019-01-02T06:40:37.174Z,892.82
2019-01-02T06:41:37.155Z,892.86
2019-01-02T06:42:37.137Z,892.85
2019-01-02T06:43:37.119Z,892.83
2019-01-02T06:44:37.113Z,892.89
2019-01-02T06:45:37.081Z,892.94
2019-01-02T06:46:37.070Z,892.98
2019-01-02T06:47:37.043Z,892.99
2019-01-02T06:48:37.028Z,893.05
2019-01-02T06:49:37.007Z,893.05
2019-01-02T06:50:36.985Z,893.13
2019-01-02T06:51:36.960Z,893.04
2019-01-02T06:52:36.954Z,893.10
2019-01-02T06:53:36.920Z,893.14
2019-01-02T06:54:36.908Z,893.15
2019-01-02T06:55:36.882Z,893.03
2019-01-02T06:56:36.864Z,893.01
2019-01-02T06:57:36.844Z,893.05
2019-01-02T06:58:36.825Z,893.08
2019-01-02T06:59:36.811Z,893.01
2019-01-02T07:00:36.789Z,893.06
2019-01-02T07:01:36.769Z,893.00
2019-01-02T07:02:36.747Z,893.00
2019-01-02T07:03:36.731Z,893.14
2019-01-02T07:04:36.711Z,893.07
2019-01-02T07:05:36.689Z,892.91
2019-01-02T07:06:36.668Z,893.04
2019-01-02T07:07:36.644Z,893.06
2019-01-02T07:08:36.632Z,893.11
2019-01-02T07:09:36.612Z,893.11
2019-01-02T07:10:36.596Z,893.10
2019-01-02T07:11:36.582Z,893.13
2019-01-02T07:12:36.558Z,893.09
2019-01-02T07:13:36.533Z,893.08
2019-01-02T07:14:36.515Z,893.17
2019-01-02T07:15:36.507Z,893.10
2019-01-02T07:16:36.483Z,893.07
2019-01-02T07:17:36.459Z,893.19
2019-01-02T07:18:36.437Z,893.15
2019-01-02T07:19:36.467Z,893.08
2019-01-02T07:20:36.401Z,893.12
2019-01-02T07:21:36.386Z,893.21
2019-01-02T07:22:36.360Z,893.25
2019-01-02T07:23:36.336Z,893.13
2019-01-02T07:24:36.324Z,893.18
2019-01-02T07:25:36.298Z,893.12
2019-01-02T07:26:36.278Z,893.11
2019-01-02T07:27:36.264Z,893.17
2019-01-02T07:28:36.242Z,893.23
2019-01-02T07:29:36.232Z,893.21
2019-01-02T07:30:36.215Z,893.21
2019-01-02T07:31:36.197Z,893.20
2019-01-02T07:32:36.165Z,893.26
2019-01-02T07:33:36.142Z,893.31
2019-01-02T07:34:36.125Z,893.23
2019-01-02T07:35:36.101Z,893.31
2019-01-02T07:36:36.079Z,893.24
2019-01-02T07:37:36.070Z,893.30
2019-01-02T07:38:36.058Z,893.29
2019-01-02T07:39:36.026Z,893.22
2019-01-02T07:40:36.003Z,893.24
2019-01-02T07:41:35.981Z,893.28
2019-01-02T07:42:35.967Z,893.29
2019-01-02T07:43:36.560Z,893.36
2019-01-02T07:44:35.923Z,893.38
2019-01-02T07:45:35.917Z,893.36
2019-01-02T07:46:35.885Z,893.39
2019-01-02T07:47:35.869Z,893.48
2019-01-02T07:48:35.844Z,893.44
2019-01-02T07:49:35.823Z,893.44
2019-01-02T07:50:35.806Z,893.41
2019-01-02T07:51:35.798Z,893.41
2019-01-02T07:52:35.772Z,893.48
2019-01-02T07:53:35.745Z,893.45
2019-01-02T07:54:35.720Z,893.37
2019-01-02T07:55:35.704Z,893.40
2019-01-02T07:56:35.684Z,893.43
2019-01-02T07:57:35.668Z,893.43
2019-01-02T07:58:35.646Z,893.42
2019-01-02T07:59:35.620Z,893.47
2019-01-02T08:00:35.610Z,893.44
2019-01-02T08:01:35.591Z,893.43
2019-01-02T08:02:35.559Z,893.45
2019-01-02T08:03:35.543Z,893.45
2019-01-02T08:04:35.535Z,893.43
2019-01-02T08:05:35.521Z,893.41
2019-01-02T08:06:35.484Z,893.44
2019-01-02T08:07:35.467Z,893.50
2019-01-02T08:08:35.443Z,893.48
2019-01-02T08:09:35.472Z,893.53
2019-01-02T08:10:35.407Z,893.44
2019-01-02T08:11:35.396Z,893.50
2019-01-02T08:12:35.368Z,893.47
2019-01-02T08:13:35.347Z,893.58
2019-01-02T08:14:35.323Z,893.58
2019-01-02T08:15:35.315Z,893.63
2019-01-02T08:16:35.288Z,893.61
2019-01-02T08:17:35.264Z,893.73
2019-01-02T08:18:35.250Z,893.66
2019-01-02T08:19:35.232Z,893.70
2019-01-02T08:20:35.203Z,893.78
2019-01-02T08:21:35.186Z,893.76
2019-01-02T08:22:35.176Z,893.83
2019-01-02T08:23:35.152Z,893.83
2019-01-02T08:24:35.126Z,893.84
2019-01-02T08:25:35.111Z,893.83
2019-01-02T08:26:35.102Z,893.86
2019-01-02T08:27:35.070Z,893.90
2019-01-02T08:28:35.050Z,893.96
2019-01-02T08:29:35.029Z,893.92
2019-01-02T08:30:35.015Z,893.92
2019-01-02T08:31:34.995Z,893.91
2019-01-02T08:32:34.971Z,893.88
2019-01-02T08:33:34.952Z,893.97
2019-01-02T08:34:34.933Z,894.00
2019-01-02T08:35:34.958Z,894.02
2019-01-02T08:36:34.891Z,893.98
2019-01-02T08:37:34.872Z,894.06
2019-01-02T08:38:34.856Z,894.09
2019-01-02T08:39:34.844Z,894.05
2019-01-02T08:40:34.811Z,894.11
2019-01-02T08:41:34.795Z,894.17
2019-01-02T08:42:34.775Z,894.17
2019-01-02T08:43:34.771Z,894.18
2019-01-02T08:44:34.736Z,894.24
2019-01-02T08:45:34.716Z,894.30
2019-01-02T08:46:34.692Z,894.33
2019-01-02T08:47:34.700Z,894.33
2019-01-02T08:48:34.654Z,894.35
2019-01-02T08:49:34.650Z,894.27
2019-01-02T08:50:34.615Z,894.32
2019-01-02T08:51:34.596Z,894.34
2019-01-02T08:52:34.581Z,894.42
2019-01-02T08:53:34.549Z,894.34
2019-01-02T08:54:34.541Z,894.34
2019-01-02T08:55:34.517Z,894.40
2019-01-02T08:56:34.494Z,894.38
2019-01-02T08:57:34.478Z,894.41
2019-01-02T08:58:34.458Z,894.41
2019-01-02T08:59:34.438Z,894.42
2019-01-02T09:00:34.414Z,894.53
2019-01-02T09:01:34.399Z,894.67
2019-01-02T09:02:34.380Z,894.61
2019-01-02T09:03:34.367Z,894.61
2019-01-02T09:04:34.428Z,894.58
2019-01-02T09:05:34.324Z,894.64
2019-01-02T09:06:34.301Z,894.64
2019-01-02T09:07:34.282Z,894.59
2019-01-02T09:08:34.261Z,894.62
2019-01-02T09:09:34.243Z,894.63
2019-01-02T09:10:34.223Z,894.67
2019-01-02T09:11:34.202Z,894.63
2019-01-02T09:12:34.183Z,894.66
2019-01-02T09:13:34.164Z,894.66
2019-01-02T09:14:34.146Z,894.69
2019-01-02T09:15:34.130Z,894.67
2019-01-02T09:16:34.106Z,894.70
2019-01-02T09:17:34.084Z,894.71
2019-01-02T09:18:34.063Z,894.72
2019-01-02T09:19:34.044Z,894.71
2019-01-02T09:20:34.033Z,894.81
2019-01-02T09:21:34.011Z,894.77
2019-01-02T09:22:33.996Z,894.77
2019-01-02T09:23:33.965Z,894.76
2019-01-02T09:24:33.957Z,894.83
2019-01-02T09:25:33.929Z,894.87
2019-01-02T09:26:33.909Z,894.77
2019-01-02T09:27:33.891Z,894.75
2019-01-02T09:28:33.864Z,894.74
2019-01-02T09:29:33.846Z,894.77
2019-01-02T09:30:33.823Z,894.74
2019-01-02T09:31:33.806Z,894.87
2019-01-02T09:32:33.788Z,894.90
2019-01-02T09:33:33.765Z,894.83
2019-01-02T09:34:33.746Z,894.82
2019-01-02T09:35:33.726Z,894.84
2019-01-02T09:36:33.705Z,894.83
2019-01-02T09:37:33.690Z,894.79
2019-01-02T09:38:33.671Z,894.83
2019-01-02T09:39:33.648Z,894.81
2019-01-02T09:40:33.644Z,894.74
2019-01-02T09:41:33.605Z,894.78
2019-01-02T09:42:33.591Z,894.84
2019-01-02T09:43:33.574Z,894.82
2019-01-02T09:44:33.548Z,894.87
2019-01-02T09:45:33.526Z,894.76
2019-01-02T09:46:33.550Z,894.71
2019-01-02T09:47:33.497Z,894.75
2019-01-02T09:48:33.464Z,894.72
2019-01-02T09:49:33.472Z,894.68
2019-01-02T09:50:33.429Z,894.68
2019-01-02T09:51:33.409Z,894.65
2019-01-02T09:52:33.394Z,894.63
2019-01-02T09:53:33.365Z,894.68
2019-01-02T09:54:33.362Z,894.62
2019-01-02T09:55:33.332Z,894.65
2019-01-02T09:56:33.312Z,894.69
2019-01-02T09:57:33.292Z,894.63
2019-01-02T09:58:33.278Z,894.63
2019-01-02T09:59:33.251Z,894.67
2019-01-02T10:00:33.238Z,894.61
2019-01-02T10:01:33.218Z,894.66
2019-01-02T10:02:33.195Z,894.64
2019-01-02T10:03:33.177Z,894.60
2019-01-02T10:04:33.190Z,894.60
2019-01-02T10:05:33.143Z,894.59
2019-01-02T10:06:33.117Z,894.70
2019-01-02T10:07:33.098Z,894.60
2019-01-02T10:08:33.142Z,894.63
2019-01-02T10:09:33.060Z,894.55
2019-01-02T10:10:33.050Z,894.59
2019-01-02T10:11:33.022Z,894.66
2019-01-02T10:12:33.002Z,894.59
2019-01-02T10:13:32.982Z,894.59
2019-01-02T10:14:32.966Z,894.54
2019-01-02T10:15:32.954Z,894.54
2019-01-02T10:16:32.921Z,894.63
2019-01-02T10:17:32.905Z,894.55
2019-01-02T10:18:32.889Z,894.49
2019-01-02T10:19:32.863Z,894.45
2019-01-02T10:20:32.845Z,894.51
2019-01-02T10:21:32.828Z,894.46
2019-01-02T10:22:32.806Z,894.44
2019-01-02T10:23:32.785Z,894.46
2019-01-02T10:24:32.766Z,894.45
2019-01-02T10:25:32.745Z,894.43
2019-01-02T10:26:32.731Z,894.48
2019-01-02T10:27:32.709Z,894.45
2019-01-02T10:28:32.683Z,894.48
2019-01-02T10:29:32.666Z,894.47
2019-01-02T10:30:32.655Z,894.47
2019-01-02T10:31:32.631Z,894.45
2019-01-02T10:32:32.657Z,894.54
2019-01-02T10:33:32.594Z,894.47
2019-01-02T10:34:32.564Z,894.44
2019-01-02T10:35:32.555Z,894.43
2019-01-02T10:36:32.529Z,894.36
2019-01-02T10:37:32.510Z,894.34
2019-01-02T10:38:32.488Z,894.34
2019-01-02T10:39:32.480Z,894.28
2019-01-02T10:40:32.454Z,894.34
2019-01-02T10:41:32.435Z,894.29
2019-01-02T10:42:32.410Z,894.28
2019-01-02T10:43:32.401Z,894.32
2019-01-02T10:44:32.383Z,894.27
2019-01-02T10:45:32.348Z,894.29
2019-01-02T10:46:32.332Z,894.26
2019-01-02T10:47:33.685Z,894.18
2019-01-02T10:48:32.288Z,894.22
2019-01-02T10:49:32.278Z,894.25
2019-01-02T10:50:32.256Z,894.23
2019-01-02T10:51:32.237Z,894.24
2019-01-02T10:52:32.208Z,894.23
2019-01-02T10:53:32.196Z,894.22
2019-01-02T10:54:32.180Z,894.22
2019-01-02T10:55:32.148Z,894.14
2019-01-02T10:56:32.128Z,894.09
2019-01-02T10:57:32.129Z,894.01
2019-01-02T10:58:36.578Z,894.02
2019-01-02T10:59:32.070Z,894.08
2019-01-02T11:00:32.055Z,894.08
2019-01-02T11:01:32.029Z,894.03
2019-01-02T11:02:32.017Z,894.04
2019-01-02T11:03:31.999Z,894.02
2019-01-02T11:04:31.972Z,894.03
2019-01-02T11:05:31.952Z,894.01
2019-01-02T11:06:31.932Z,893.84
2019-01-02T11:07:31.925Z,893.83
2019-01-02T11:08:31.886Z,893.87
2019-01-02T11:09:31.870Z,893.87
2019-01-02T11:10:31.850Z,893.79
2019-01-02T11:11:31.834Z,893.79
2019-01-02T11:12:31.814Z,893.78
2019-01-02T11:13:31.799Z,893.72
2019-01-02T11:14:31.779Z,893.73
2019-01-02T11:15:31.754Z,893.69
2019-01-02T11:16:31.736Z,893.70
2019-01-02T11:17:31.713Z,893.64
2019-01-02T11:18:31.700Z,893.65
2019-01-02T11:19:31.672Z,893.67
2019-01-02T11:20:31.652Z,893.69
2019-01-02T11:21:31.634Z,893.55
2019-01-02T11:22:31.619Z,893.57
2019-01-02T11:23:31.593Z,893.47
2019-01-02T11:24:31.578Z,893.49
2019-01-02T11:25:31.550Z,893.45
2019-01-02T11:26:31.534Z,893.46
2019-01-02T11:27:31.517Z,893.38
2019-01-02T11:28:31.490Z,893.45
2019-01-02T11:29:31.473Z,893.47
2019-01-02T11:30:31.453Z,893.39
2019-01-02T11:31:31.437Z,893.37
2019-01-02T11:32:31.413Z,893.37
2019-01-02T11:33:31.395Z,893.34
2019-01-02T11:34:31.375Z,893.39
2019-01-02T11:35:31.357Z,893.40
2019-01-02T11:36:31.337Z,893.40
2019-01-02T11:37:31.312Z,893.36
2019-01-02T11:38:31.291Z,893.36
2019-01-02T11:39:31.275Z,893.32
2019-01-02T11:40:31.246Z,893.36
2019-01-02T11:41:31.232Z,893.38
2019-01-02T11:42:31.208Z,893.37
2019-01-02T11:43:31.191Z,893.37
2019-01-02T11:44:31.179Z,893.39
2019-01-02T11:45:31.148Z,893.41
2019-01-02T11:46:31.133Z,893.45
2019-01-02T11:47:31.113Z,893.41
2019-01-02T11:48:31.092Z,893.37
2019-01-02T11:49:31.080Z,893.47
2019-01-02T11:50:31.054Z,893.50
2019-01-02T11:51:31.037Z,893.43
2019-01-02T11:52:31.013Z,893.41
2019-01-02T11:53:30.992Z,893.35
2019-01-02T11:54:30.978Z,893.33
2019-01-02T11:55:30.952Z,893.22
2019-01-02T11:56:30.934Z,893.23
2019-01-02T11:57:30.917Z,893.25
2019-01-02T11:58:30.897Z,893.25
2019-01-02T11:59:30.873Z,893.24
2019-01-02T12:00:30.853Z,893.21
2019-01-02T12:01:30.835Z,893.09
2019-01-02T12:02:34.215Z,893.10
2019-01-02T12:03:30.790Z,893.01
2019-01-02T12:04:30.768Z,893.11
2019-01-02T12:05:30.756Z,893.10
2019-01-02T12:06:30.735Z,893.06
2019-01-02T12:07:30.714Z,892.82
2019-01-02T12:08:30.688Z,892.95
2019-01-02T12:09:30.669Z,892.92
2019-01-02T12:10:30.657Z,893.06
2019-01-02T12:11:30.632Z,892.94
2019-01-02T12:12:30.611Z,893.16
2019-01-02T12:13:30.601Z,893.13
2019-01-02T12:14:30.573Z,893.04
2019-01-02T12:15:30.551Z,893.07
2019-01-02T12:16:30.533Z,892.99
2019-01-02T12:17:30.520Z,893.09
2019-01-02T12:18:30.490Z,893.02
2019-01-02T12:19:30.472Z,893.02
2019-01-02T12:20:30.453Z,892.87
2019-01-02T12:21:30.430Z,892.95
2019-01-02T12:22:30.409Z,892.86
2019-01-02T12:23:30.393Z,892.86
2019-01-02T12:24:30.368Z,892.92
2019-01-02T12:25:30.351Z,892.85
2019-01-02T12:26:30.329Z,892.97
2019-01-02T12:27:30.309Z,892.89
2019-01-02T12:28:30.289Z,892.92